createdAt,value
2023-04-22T00:00:17.295Z,18.60
2023-04-22T00:02:46.034Z,17.43
2023-04-22T00:05:18.523Z,16.23
2023-04-22T00:07:49.061Z,18.00
2023-04-22T00:10:17.642Z,18.67
2023-04-22T00:12:46.059Z,19.77
2023-04-22T00:15:14.666Z,18.03
2023-04-22T00:17:43.286Z,17.87
2023-04-22T00:20:12.852Z,16.37
2023-04-22T00:22:42.701Z,16.63
2023-04-22T00:25:11.332Z,16.47
2023-04-22T00:27:39.752Z,15.97
2023-04-22T00:30:09.657Z,15.60
2023-04-22T00:32:38.241Z,15.20
2023-04-22T00:35:07.436Z,15.43
2023-04-22T00:37:36.177Z,18.17
2023-04-22T00:40:06.984Z,18.77
2023-04-22T00:42:36.105Z,17.40
2023-04-22T00:45:04.666Z,20.90
2023-04-22T00:47:33.337Z,20.00
2023-04-22T00:50:02.117Z,17.70
2023-04-22T00:52:30.576Z,18.37
2023-04-22T00:54:59.281Z,18.97
2023-04-22T00:57:31.007Z,18.27
2023-04-22T00:59:59.590Z,18.77
2023-04-22T01:02:28.233Z,17.00
2023-04-22T01:05:00.138Z,20.67
2023-04-22T01:07:28.814Z,19.97
2023-04-22T01:09:58.445Z,19.73
2023-04-22T01:12:28.188Z,18.80
2023-04-22T01:14:56.940Z,18.20
2023-04-22T01:17:26.016Z,17.83
2023-04-22T01:19:55.741Z,18.20
2023-04-22T01:22:25.287Z,18.60
2023-04-22T01:24:55.205Z,17.30
2023-04-22T01:27:24.224Z,17.63
2023-04-22T01:29:53.420Z,18.43
2023-04-22T01:32:22.242Z,18.00
2023-04-22T01:34:50.888Z,16.67
2023-04-22T01:37:20.293Z,15.80
2023-04-22T01:39:49.683Z,16.10
2023-04-22T01:42:19.500Z,15.47
2023-04-22T01:44:48.248Z,15.30
2023-04-22T01:47:17.034Z,15.93
2023-04-22T01:49:45.537Z,16.53
2023-04-22T01:52:14.459Z,16.93
2023-04-22T01:54:43.105Z,16.63
2023-04-22T01:57:16.553Z,17.00
2023-04-22T01:59:46.923Z,16.23
2023-04-22T02:02:16.615Z,16.17
2023-04-22T02:04:45.170Z,16.63
2023-04-22T02:07:13.553Z,14.90
2023-04-22T02:09:42.275Z,14.60
2023-04-22T02:12:11.042Z,17.30
2023-04-22T02:14:41.747Z,17.20
2023-04-22T02:17:11.610Z,16.53
2023-04-22T02:19:41.665Z,17.27
2023-04-22T02:22:10.688Z,16.60
2023-04-22T02:24:39.099Z,15.60
2023-04-22T02:27:08.823Z,16.13
2023-04-22T02:29:37.494Z,17.90
2023-04-22T02:32:06.418Z,15.87
2023-04-22T02:34:36.591Z,15.30
2023-04-22T02:37:05.712Z,15.33
2023-04-22T02:39:34.245Z,15.40
2023-04-22T02:42:03.279Z,14.83
2023-04-22T02:44:31.730Z,15.37
2023-04-22T02:47:00.388Z,14.97
2023-04-22T02:49:28.916Z,14.37
2023-04-22T02:51:59.003Z,14.77
2023-04-22T02:54:27.502Z,15.60
2023-04-22T02:56:55.846Z,16.37
2023-04-22T02:59:24.237Z,15.67
2023-04-22T03:01:53.189Z,18.57
2023-04-22T03:04:57.310Z,17.40
2023-04-22T03:07:27.458Z,18.17
2023-04-22T03:09:56.519Z,20.07
2023-04-22T03:12:26.197Z,18.37
2023-04-22T03:14:54.577Z,19.13
2023-04-22T03:17:26.167Z,18.63
2023-04-22T03:19:54.904Z,16.80
2023-04-22T03:22:23.495Z,17.33
2023-04-22T03:24:56.128Z,17.13
2023-04-22T03:27:29.575Z,17.03
2023-04-22T03:29:58.062Z,17.80
2023-04-22T03:32:26.909Z,20.67
2023-04-22T03:35:15.829Z,19.17
2023-04-22T03:37:45.661Z,18.13
2023-04-22T03:40:18.584Z,17.87
2023-04-22T03:42:47.095Z,17.40
2023-04-22T03:45:16.330Z,18.97
2023-04-22T03:47:49.643Z,18.60
2023-04-22T03:50:26.512Z,17.87
2023-04-22T03:52:56.393Z,17.90
2023-04-22T03:55:26.211Z,18.73
2023-04-22T03:57:55.968Z,18.50
2023-04-22T04:00:24.526Z,17.73
2023-04-22T04:03:06.014Z,19.90
2023-04-22T04:05:34.835Z,19.23
2023-04-22T04:08:03.617Z,18.90
2023-04-22T04:10:33.368Z,18.77
2023-04-22T04:13:04.462Z,19.10
2023-04-22T04:15:40.554Z,17.30
2023-04-22T04:18:09.926Z,16.90
2023-04-22T04:20:38.551Z,16.03
2023-04-22T04:23:07.979Z,15.60
2023-04-22T04:25:38.886Z,14.57
2023-04-22T04:28:12.965Z,14.40
2023-04-22T04:30:42.394Z,14.87
2023-04-22T04:33:12.497Z,15.83
2023-04-22T04:35:44.898Z,13.70
2023-04-22T04:38:17.566Z,14.37
2023-04-22T04:40:47.990Z,14.80
2023-04-22T04:43:20.267Z,13.90
2023-04-22T04:45:53.865Z,13.90
2023-04-22T04:48:29.203Z,13.67
2023-04-22T04:51:06.303Z,13.53
2023-04-22T04:53:37.955Z,13.57
2023-04-22T04:56:07.915Z,14.47
2023-04-22T04:58:37.307Z,13.47
2023-04-22T05:01:25.986Z,12.93
2023-04-22T05:03:55.814Z,14.27
2023-04-22T05:06:24.573Z,13.57
2023-04-22T05:09:03.556Z,13.50
2023-04-22T05:11:33.647Z,13.53
2023-04-22T05:14:04.607Z,13.07
2023-04-22T05:16:37.305Z,13.37
2023-04-22T05:19:05.992Z,13.43
2023-04-22T05:21:34.964Z,13.67
2023-04-22T05:24:03.469Z,13.13
2023-04-22T05:26:33.270Z,13.23
2023-04-22T05:29:04.731Z,13.17
2023-04-22T05:31:33.933Z,12.67
2023-04-22T05:34:02.383Z,12.40
2023-04-22T05:36:31.949Z,12.23
2023-04-22T05:39:01.663Z,12.70
2023-04-22T05:41:33.322Z,12.63
2023-04-22T05:44:02.173Z,13.27
2023-04-22T05:46:31.831Z,12.47
2023-04-22T05:49:01.076Z,12.80
2023-04-22T05:51:47.753Z,12.77
2023-04-22T05:54:19.488Z,12.93
2023-04-22T05:56:49.409Z,13.07
2023-04-22T05:59:19.592Z,14.40
2023-04-22T06:01:50.112Z,13.40
2023-04-22T06:04:21.640Z,13.93
2023-04-22T06:06:53.814Z,15.07
2023-04-22T06:09:22.444Z,15.63
2023-04-22T06:11:52.264Z,15.65
2023-04-22T06:14:21.192Z,15.23
2023-04-22T06:16:52.704Z,13.07
2023-04-22T06:19:21.510Z,12.70
2023-04-22T06:21:49.900Z,12.43
2023-04-22T06:24:18.326Z,12.40
2023-04-22T06:26:46.950Z,11.68
2023-04-22T06:29:16.930Z,11.27
2023-04-22T06:31:45.430Z,11.95
2023-04-22T06:34:13.952Z,12.70
2023-04-22T06:36:42.655Z,12.65
2023-04-22T06:39:11.602Z,11.65
2023-04-22T06:42:03.185Z,11.25
2023-04-22T06:44:58.909Z,11.63
2023-04-22T06:48:00.105Z,11.70
2023-04-22T06:50:40.730Z,10.98
2023-04-22T06:53:10.207Z,11.73
2023-04-22T06:55:38.841Z,12.13
2023-04-22T06:58:07.417Z,11.27
2023-04-22T07:00:37.213Z,11.38
2023-04-22T07:03:05.754Z,12.55
2023-04-22T07:05:34.793Z,12.57
2023-04-22T07:08:04.370Z,11.50
2023-04-22T07:10:33.016Z,12.50
2023-04-22T07:13:24.399Z,11.27
2023-04-22T07:15:54.542Z,11.68
2023-04-22T07:18:23.067Z,11.40
2023-04-22T07:20:51.557Z,11.10
2023-04-22T07:23:20.056Z,10.77
2023-04-22T07:25:48.828Z,10.85
2023-04-22T07:28:17.262Z,11.38
2023-04-22T07:30:46.195Z,11.40
2023-04-22T07:33:15.955Z,12.05
2023-04-22T07:35:44.553Z,12.32
2023-04-22T07:38:14.623Z,11.43
2023-04-22T07:40:43.945Z,13.20
2023-04-22T07:43:12.351Z,12.68
2023-04-22T07:45:40.892Z,12.52
2023-04-22T07:48:09.286Z,11.73
2023-04-22T07:50:39.079Z,10.25
2023-04-22T07:53:07.517Z,10.23
2023-04-22T07:55:35.954Z,11.18
2023-04-22T07:58:06.868Z,11.18
2023-04-22T08:00:35.675Z,11.20
2023-04-22T08:03:04.630Z,10.98
2023-04-22T08:05:33.343Z,12.80
2023-04-22T08:08:03.219Z,11.32
2023-04-22T08:10:31.767Z,10.93
2023-04-22T08:13:00.236Z,12.75
2023-04-22T08:15:28.756Z,12.18
2023-04-22T08:17:57.243Z,11.10
2023-04-22T08:20:25.955Z,11.68
2023-04-22T08:22:58.405Z,11.18
2023-04-22T08:25:28.723Z,10.32
2023-04-22T08:27:57.168Z,12.13
2023-04-22T08:30:25.647Z,11.10
2023-04-22T08:32:54.220Z,12.10
2023-04-22T08:35:22.771Z,10.82
2023-04-22T08:37:51.202Z,10.93
2023-04-22T08:40:19.616Z,10.40
2023-04-22T08:42:52.350Z,9.98
2023-04-22T08:45:21.362Z,9.70
2023-04-22T08:47:51.245Z,9.75
2023-04-22T08:50:22.365Z,9.23
2023-04-22T08:52:51.303Z,10.77
2023-04-22T08:55:20.798Z,10.45
2023-04-22T08:57:51.111Z,10.30
2023-04-22T09:00:20.665Z,9.82
2023-04-22T09:02:50.600Z,9.60
2023-04-22T09:05:21.958Z,9.20
2023-04-22T09:07:50.531Z,10.15
2023-04-22T09:10:19.276Z,10.70
2023-04-22T09:12:49.764Z,13.32
2023-04-22T09:15:19.719Z,9.98
2023-04-22T09:17:48.233Z,10.20
2023-04-22T09:20:18.012Z,10.65
2023-04-22T09:22:49.628Z,11.07
2023-04-22T09:25:19.202Z,11.02
2023-04-22T09:27:51.785Z,11.02
2023-04-22T09:30:25.582Z,11.00
2023-04-22T09:32:56.094Z,10.60
2023-04-22T09:35:29.609Z,11.07
2023-04-22T09:37:58.651Z,10.35
2023-04-22T09:40:27.719Z,12.13
2023-04-22T09:42:58.880Z,11.23
2023-04-22T09:45:30.935Z,10.75
2023-04-22T09:48:03.325Z,11.50
2023-04-22T09:50:31.759Z,10.60
2023-04-22T09:53:03.310Z,10.27
2023-04-22T09:55:34.240Z,10.93
2023-04-22T09:58:08.849Z,11.57
2023-04-22T10:00:42.504Z,10.35
2023-04-22T10:03:11.429Z,11.35
2023-04-22T10:05:41.604Z,10.82
2023-04-22T10:08:11.620Z,11.73
2023-04-22T10:10:40.514Z,9.90
2023-04-22T10:13:09.757Z,10.27
2023-04-22T10:15:42.418Z,10.02
2023-04-22T10:18:15.949Z,10.25
2023-04-22T10:20:45.505Z,11.35
2023-04-22T10:23:16.007Z,11.07
2023-04-22T10:25:47.977Z,10.18
2023-04-22T10:28:18.532Z,9.85
2023-04-22T10:30:48.354Z,9.85
2023-04-22T10:33:41.865Z,10.70
2023-04-22T10:36:12.429Z,9.75
2023-04-22T10:38:43.182Z,9.90
2023-04-22T10:41:16.100Z,10.15
2023-04-22T10:43:46.768Z,9.90
2023-04-22T10:46:53.293Z,9.77
2023-04-22T10:49:24.530Z,10.68
2023-04-22T10:51:54.625Z,9.85
2023-04-22T10:55:05.877Z,11.43
2023-04-22T10:57:40.292Z,20.55
2023-04-22T11:00:41.767Z,14.77
2023-04-22T11:03:18.061Z,11.23
2023-04-22T11:05:48.022Z,11.20
2023-04-22T11:08:23.610Z,11.20
2023-04-22T11:10:54.126Z,10.77
2023-04-22T11:13:23.402Z,9.70
2023-04-22T11:15:55.551Z,9.45
2023-04-22T11:18:27.185Z,9.65
2023-04-22T11:20:57.930Z,9.70
2023-04-22T11:23:28.318Z,9.55
2023-04-22T11:25:57.980Z,9.27
2023-04-22T11:28:26.981Z,9.57
2023-04-22T11:31:03.699Z,9.40
2023-04-22T11:33:34.182Z,9.88
2023-04-22T11:36:04.137Z,10.43
2023-04-22T11:38:33.429Z,10.35
2023-04-22T11:41:01.960Z,10.35
2023-04-22T11:43:31.113Z,10.80
2023-04-22T11:45:59.614Z,9.27
2023-04-22T11:48:28.031Z,11.85
2023-04-22T11:51:11.888Z,16.70
2023-04-22T11:53:41.433Z,14.60
2023-04-22T11:56:09.942Z,14.90
2023-04-22T11:58:42.109Z,12.70
2023-04-22T12:01:14.843Z,11.80
2023-04-22T12:03:43.685Z,12.38
2023-04-22T12:06:13.494Z,11.73
2023-04-22T12:08:43.801Z,11.77
2023-04-22T12:11:13.563Z,11.32
2023-04-22T12:13:45.725Z,11.45
2023-04-22T12:16:16.069Z,10.85
2023-04-22T12:18:51.051Z,10.37
2023-04-22T12:21:23.726Z,8.82
2023-04-22T12:23:54.254Z,8.25
2023-04-22T12:26:26.763Z,8.83
2023-04-22T12:28:56.113Z,9.88
2023-04-22T12:31:24.866Z,9.98
2023-04-22T12:33:54.132Z,10.10
2023-04-22T12:36:25.191Z,11.05
2023-04-22T12:38:53.968Z,9.68
2023-04-22T12:41:23.276Z,10.30
2023-04-22T12:43:52.899Z,10.05
2023-04-22T12:46:21.535Z,9.82
2023-04-22T12:48:49.980Z,9.75
2023-04-22T12:51:18.406Z,9.60
2023-04-22T12:53:48.129Z,10.40
2023-04-22T12:56:16.650Z,10.05
2023-04-22T12:58:45.163Z,9.77
2023-04-22T13:01:13.643Z,10.20
2023-04-22T13:03:42.189Z,10.30
2023-04-22T13:06:10.671Z,10.00
2023-04-22T13:08:39.193Z,9.27
2023-04-22T13:11:09.093Z,9.35
2023-04-22T13:13:37.524Z,8.80
2023-04-22T13:16:06.405Z,9.60
2023-04-22T13:18:35.203Z,9.70
2023-04-22T13:21:03.723Z,9.32
2023-04-22T13:23:32.654Z,10.13
2023-04-22T13:26:01.084Z,9.65
2023-04-22T13:28:30.824Z,9.50
2023-04-22T13:30:59.329Z,9.30
2023-04-22T13:33:27.778Z,10.13
2023-04-22T13:35:56.275Z,10.65
2023-04-22T13:38:24.694Z,10.25
2023-04-22T13:40:53.108Z,9.18
2023-04-22T13:43:22.175Z,10.70
2023-04-22T13:45:52.028Z,10.10
2023-04-22T13:48:20.454Z,10.00
2023-04-22T13:50:49.788Z,10.65
2023-04-22T13:53:18.204Z,10.70
2023-04-22T13:55:46.676Z,10.00
2023-04-22T13:58:15.131Z,9.95
2023-04-22T14:00:43.626Z,10.95
2023-04-22T14:03:13.503Z,10.40
2023-04-22T14:05:42.090Z,10.85
2023-04-22T14:08:10.495Z,10.15
2023-04-22T14:10:38.896Z,10.38
2023-04-22T14:13:07.372Z,10.10
2023-04-22T14:15:35.891Z,10.07
2023-04-22T14:18:04.736Z,10.85
2023-04-22T14:20:34.690Z,10.32
2023-04-22T14:23:05.360Z,10.80
2023-04-22T14:25:33.833Z,11.07
2023-04-22T14:28:03.891Z,13.73
2023-04-22T14:30:32.465Z,13.63
2023-04-22T14:33:01.273Z,12.02
2023-04-22T14:35:29.899Z,11.25
2023-04-22T14:37:59.627Z,12.00
2023-04-22T14:40:29.242Z,11.10
2023-04-22T14:42:59.209Z,10.77
2023-04-22T14:45:29.353Z,10.70
2023-04-22T14:47:58.070Z,11.05
2023-04-22T14:50:26.866Z,12.00
2023-04-22T14:52:56.149Z,11.52
2023-04-22T14:55:26.351Z,12.30
2023-04-22T14:57:57.819Z,11.60
2023-04-22T15:00:26.737Z,11.77
2023-04-22T15:02:56.113Z,10.90
2023-04-22T15:05:24.892Z,11.47
2023-04-22T15:07:53.333Z,11.57
2023-04-22T15:10:22.018Z,11.00
2023-04-22T15:12:51.731Z,11.10
2023-04-22T15:15:20.158Z,11.23
2023-04-22T15:17:48.770Z,10.70
2023-04-22T15:20:17.319Z,11.33
2023-04-22T15:22:45.864Z,10.70
2023-04-22T15:25:16.005Z,10.00
2023-04-22T15:27:46.179Z,10.60
2023-04-22T15:30:16.229Z,10.03
2023-04-22T15:32:44.674Z,10.70
2023-04-22T15:35:13.153Z,11.00
2023-04-22T15:37:41.867Z,11.07
2023-04-22T15:40:10.811Z,11.33
2023-04-22T15:42:39.326Z,9.93
2023-04-22T15:45:08.505Z,10.90
2023-04-22T15:47:39.287Z,11.50
2023-04-22T15:50:10.763Z,9.87
2023-04-22T15:52:39.686Z,11.00
2023-04-22T15:55:09.501Z,11.60
2023-04-22T15:57:38.002Z,10.77
2023-04-22T16:00:12.667Z,11.20
2023-04-22T16:02:55.508Z,10.87
2023-04-22T16:05:25.220Z,10.93
2023-04-22T16:07:54.255Z,11.67
2023-04-22T16:10:23.023Z,11.00
2023-04-22T16:12:52.060Z,11.43
2023-04-22T16:15:22.709Z,10.90
2023-04-22T16:17:52.541Z,10.23
2023-04-22T16:20:20.919Z,10.60
2023-04-22T16:22:49.311Z,10.47
2023-04-22T16:25:17.649Z,10.70
2023-04-22T16:27:46.138Z,10.70
2023-04-22T16:30:16.297Z,10.63
2023-04-22T16:32:44.934Z,10.97
2023-04-22T16:35:14.633Z,11.10
2023-04-22T16:37:43.059Z,11.13
2023-04-22T16:40:11.742Z,10.50
2023-04-22T16:42:40.287Z,11.43
2023-04-22T16:45:09.288Z,10.97
2023-04-22T16:47:37.866Z,10.57
2023-04-22T16:50:07.173Z,10.60
2023-04-22T16:52:36.952Z,10.40
2023-04-22T16:55:06.360Z,9.80
2023-04-22T16:57:35.347Z,11.50
2023-04-22T17:00:06.238Z,10.10
2023-04-22T17:02:35.060Z,11.10
2023-04-22T17:05:04.586Z,10.53
2023-04-22T17:07:33.047Z,10.03
2023-04-22T17:10:02.778Z,11.00
2023-04-22T17:12:31.295Z,11.20
2023-04-22T17:14:59.625Z,11.43
2023-04-22T17:17:29.273Z,10.73
2023-04-22T17:19:57.829Z,10.90
2023-04-22T17:22:26.430Z,11.40
2023-04-22T17:24:56.740Z,11.60
2023-04-22T17:27:26.536Z,11.10
2023-04-22T17:29:54.905Z,10.60
2023-04-22T17:32:23.407Z,10.87
2023-04-22T17:34:51.903Z,10.30
2023-04-22T17:37:20.348Z,10.30
2023-04-22T17:39:48.700Z,11.10
2023-04-22T17:42:17.872Z,11.67
2023-04-22T17:44:48.073Z,11.90
2023-04-22T17:47:16.793Z,13.63
2023-04-22T17:49:45.184Z,12.37
2023-04-22T17:52:13.566Z,11.23
2023-04-22T17:54:43.589Z,10.60
2023-04-22T17:57:12.399Z,11.63
2023-04-22T17:59:41.043Z,10.80
2023-04-22T18:02:13.060Z,11.67
2023-04-22T18:04:41.876Z,11.20
2023-04-22T18:07:10.260Z,11.70
2023-04-22T18:09:39.039Z,11.00
2023-04-22T18:12:07.958Z,11.57
2023-04-22T18:14:36.560Z,12.13
2023-04-22T18:17:05.052Z,11.07
2023-04-22T18:19:34.751Z,11.53
2023-04-22T18:22:03.630Z,11.00
2023-04-22T18:24:31.940Z,11.93
2023-04-22T18:27:00.392Z,11.33
2023-04-22T18:29:28.949Z,12.30
2023-04-22T18:31:58.473Z,12.07
2023-04-22T18:34:28.594Z,11.97
2023-04-22T18:36:58.385Z,12.30
2023-04-22T18:39:26.966Z,21.20
2023-04-22T18:41:55.521Z,19.67
2023-04-22T18:44:23.940Z,20.67
2023-04-22T18:46:54.843Z,18.70
2023-04-22T18:49:23.227Z,17.20
2023-04-22T18:51:51.789Z,15.43
2023-04-22T18:54:21.609Z,14.00
2023-04-22T18:56:50.082Z,14.30
2023-04-22T18:59:18.703Z,12.77
2023-04-22T19:01:47.261Z,12.63
2023-04-22T19:04:16.565Z,13.50
2023-04-22T19:06:45.186Z,13.27
2023-04-22T19:09:13.600Z,18.40
2023-04-22T19:11:43.786Z,28.80
2023-04-22T19:14:13.819Z,34.63
2023-04-22T19:16:42.282Z,31.70
2023-04-22T19:19:12.131Z,27.50
2023-04-22T19:21:41.190Z,23.23
2023-04-22T19:24:09.814Z,21.97
2023-04-22T19:26:38.312Z,21.43
2023-04-22T19:29:08.393Z,20.47
2023-04-22T19:31:36.918Z,20.37
2023-04-22T19:34:05.344Z,20.47
2023-04-22T19:36:33.758Z,19.77
2023-04-22T19:39:02.157Z,26.77
2023-04-22T19:41:33.546Z,24.40
2023-04-22T19:44:02.330Z,26.13
2023-04-22T19:46:32.188Z,23.00
2023-04-22T19:49:00.976Z,20.67
2023-04-22T19:51:29.600Z,19.07
2023-04-22T19:53:58.793Z,18.33
2023-04-22T19:56:28.080Z,16.57
2023-04-22T19:58:57.433Z,15.23
2023-04-22T20:01:26.317Z,14.40
2023-04-22T20:03:56.676Z,13.50
2023-04-22T20:06:25.435Z,12.73
2023-04-22T20:08:55.465Z,11.60
2023-04-22T20:11:26.062Z,11.87
2023-04-22T20:13:55.018Z,11.27
2023-04-22T20:16:24.416Z,11.40
2023-04-22T20:18:53.162Z,12.17
2023-04-22T20:21:23.699Z,11.33
2023-04-22T20:23:56.968Z,11.60
2023-04-22T20:26:26.367Z,12.53
2023-04-22T20:28:54.842Z,12.03
2023-04-22T20:31:24.126Z,11.83
2023-04-22T20:33:52.885Z,13.57
2023-04-22T20:36:24.292Z,14.03
2023-04-22T20:38:55.903Z,13.07
2023-04-22T20:41:25.695Z,13.57
2023-04-22T20:43:54.541Z,12.40
2023-04-22T20:46:23.474Z,11.70
2023-04-22T20:48:52.415Z,12.57
2023-04-22T20:51:22.174Z,11.67
2023-04-22T20:53:50.952Z,12.10
2023-04-22T20:56:19.681Z,12.00
2023-04-22T20:58:48.480Z,11.70
2023-04-22T21:01:17.482Z,11.50
2023-04-22T21:03:53.213Z,11.23
2023-04-22T21:06:23.524Z,11.23
2023-04-22T21:08:52.377Z,11.00
2023-04-22T21:11:21.215Z,10.77
2023-04-22T21:13:49.727Z,11.30
2023-04-22T21:16:20.710Z,12.63
2023-04-22T21:18:49.982Z,14.30
2023-04-22T21:21:20.713Z,13.83
2023-04-22T21:23:52.670Z,12.30
2023-04-22T21:26:21.192Z,12.10
2023-04-22T21:28:49.912Z,12.00
2023-04-22T21:31:18.770Z,11.60
2023-04-22T21:33:47.383Z,10.80
2023-04-22T21:36:15.962Z,10.57
2023-04-22T21:38:44.482Z,11.77
2023-04-22T21:41:14.306Z,12.50
2023-04-22T21:43:42.795Z,12.50
2023-04-22T21:46:11.153Z,12.60
2023-04-22T21:48:39.564Z,11.20
2023-04-22T21:51:08.111Z,12.73
2023-04-22T21:53:36.597Z,11.80
2023-04-22T21:56:05.302Z,13.57
2023-04-22T21:58:35.051Z,14.13
2023-04-22T22:01:03.451Z,13.03
2023-04-22T22:03:32.254Z,11.77
2023-04-22T22:06:00.826Z,11.70
2023-04-22T22:08:29.288Z,12.10
2023-04-22T22:10:57.925Z,12.97
2023-04-22T22:13:26.430Z,13.10
2023-04-22T22:15:57.602Z,13.70
2023-04-22T22:18:26.160Z,12.63
2023-04-22T22:20:54.953Z,11.90
2023-04-22T22:23:23.382Z,11.33
2023-04-22T22:25:51.811Z,11.67
2023-04-22T22:28:20.369Z,12.60
2023-04-22T22:30:48.777Z,11.37
2023-04-22T22:33:18.648Z,11.00
2023-04-22T22:35:47.096Z,11.10
2023-04-22T22:38:15.516Z,11.00
2023-04-22T22:40:44.232Z,11.27
2023-04-22T22:43:13.497Z,12.03
2023-04-22T22:45:42.000Z,12.40
2023-04-22T22:48:10.547Z,11.67
2023-04-22T22:50:40.369Z,14.20
2023-04-22T22:53:08.726Z,12.97
2023-04-22T22:55:37.194Z,14.33
2023-04-22T22:58:05.583Z,14.70
2023-04-22T23:00:33.958Z,14.47
2023-04-22T23:03:02.634Z,15.90
2023-04-22T23:05:31.208Z,15.13
2023-04-22T23:08:01.017Z,14.87
2023-04-22T23:10:29.474Z,15.40
2023-04-22T23:12:57.927Z,14.50
2023-04-22T23:15:26.455Z,13.90
2023-04-22T23:17:54.856Z,16.20
2023-04-22T23:20:24.941Z,17.53
2023-04-22T23:22:54.360Z,17.47
2023-04-22T23:25:24.549Z,17.77
2023-04-22T23:27:53.402Z,18.17
2023-04-22T23:30:22.823Z,17.67
2023-04-22T23:32:53.074Z,17.87
2023-04-22T23:35:22.270Z,16.87
2023-04-22T23:37:53.029Z,16.23
2023-04-22T23:40:22.830Z,17.07
2023-04-22T23:42:51.233Z,20.23
2023-04-22T23:45:19.584Z,18.93
2023-04-22T23:47:48.063Z,24.83
2023-04-22T23:50:19.160Z,21.33
2023-04-22T23:52:47.674Z,19.03
2023-04-22T23:55:17.105Z,17.60
2023-04-22T23:57:47.132Z,16.30
